createdAt,value
2022-11-09T00:01:39.083Z,100143.72
2022-11-09T00:04:06.776Z,100154.25
2022-11-09T00:06:34.613Z,100185.13
2022-11-09T00:09:07.446Z,100160.78
2022-11-09T00:11:36.299Z,100148.03
2022-11-09T00:14:02.885Z,100140.19
2022-11-09T00:16:29.185Z,100136.44
2022-11-09T00:18:55.930Z,100124.59
2022-11-09T00:21:24.234Z,100116.63
2022-11-09T00:23:51.289Z,100112.63
2022-11-09T00:26:19.259Z,100114.78
2022-11-09T00:28:45.927Z,100105.88
2022-11-09T00:31:16.147Z,100113.38
2022-11-09T00:33:42.475Z,100130.59
2022-11-09T00:36:14.019Z,100137.81
2022-11-09T00:38:40.899Z,100158.91
2022-11-09T00:41:09.185Z,100165.22
2022-11-09T00:43:36.118Z,100163.81
2022-11-09T00:46:03.106Z,100156.53
2022-11-09T00:48:29.947Z,100138.88
2022-11-09T00:50:57.625Z,100120.75
2022-11-09T00:53:25.358Z,100101.03
2022-11-09T00:56:00.576Z,100086.50
2022-11-09T00:58:29.523Z,100097.81
2022-11-09T01:00:57.625Z,100092.59
2022-11-09T01:06:53.361Z,100074.31
2022-11-09T01:09:19.704Z,100088.28
2022-11-09T01:11:46.031Z,100089.16
2022-11-09T01:14:12.339Z,100114.63
2022-11-09T01:16:39.035Z,100137.56
2022-11-09T01:19:05.774Z,100151.06
2022-11-09T01:21:32.391Z,100166.34
2022-11-09T01:23:59.086Z,100184.47
2022-11-09T01:26:25.438Z,100187.47
2022-11-09T01:28:51.780Z,100193.13
2022-11-09T01:31:20.167Z,100195.69
2022-11-09T01:33:46.905Z,100196.81
2022-11-09T01:36:16.370Z,100185.06
2022-11-09T01:38:43.516Z,100186.31
2022-11-09T01:41:14.824Z,100191.53
2022-11-09T01:43:41.244Z,100185.47
2022-11-09T01:46:20.544Z,100187.84
2022-11-09T01:48:50.012Z,100183.03
2022-11-09T01:51:23.816Z,100179.50
2022-11-09T01:53:54.960Z,100170.19
2022-11-09T01:56:21.443Z,100169.44
2022-11-09T01:58:55.305Z,100168.13
2022-11-09T02:01:21.884Z,100151.72
2022-11-09T02:04:20.091Z,100152.72
2022-11-09T02:06:47.364Z,100149.13
2022-11-09T02:09:26.539Z,100147.56
2022-11-09T02:11:53.060Z,100149.41
2022-11-09T02:14:21.824Z,100155.84
2022-11-09T02:16:48.625Z,100141.41
2022-11-09T02:19:14.983Z,100139.44
2022-11-09T02:21:41.511Z,100131.38
2022-11-09T02:24:07.970Z,100120.75
2022-11-09T02:26:43.532Z,100119.06
2022-11-09T02:29:13.381Z,100101.81
2022-11-09T02:31:45.275Z,100089.50
2022-11-09T02:34:15.164Z,100079.47
2022-11-09T02:36:43.440Z,100073.94
2022-11-09T02:39:10.810Z,100075.84
2022-11-09T02:41:54.419Z,100069.75
2022-11-09T02:44:20.897Z,100071.31
2022-11-09T02:46:47.240Z,100058.88
2022-11-09T02:49:13.577Z,100053.50
2022-11-09T02:51:39.887Z,100057.09
2022-11-09T02:54:06.271Z,100051.22
2022-11-09T02:56:32.634Z,100056.34
2022-11-09T02:58:58.938Z,100059.75
2022-11-09T03:01:25.397Z,100056.75
2022-11-09T03:03:51.741Z,100041.59
2022-11-09T03:06:18.075Z,100013.53
2022-11-09T03:08:44.394Z,100016.72
2022-11-09T03:11:10.737Z,100021.25
2022-11-09T03:13:37.316Z,100024.25
2022-11-09T03:16:05.863Z,100020.09
2022-11-09T03:18:32.211Z,100019.59
2022-11-09T03:21:03.391Z,100032.22
2022-11-09T03:23:30.125Z,100044.66
2022-11-09T03:25:56.530Z,100055.09
2022-11-09T03:28:22.873Z,100075.94
2022-11-09T03:30:49.271Z,100092.38
2022-11-09T03:33:15.587Z,100102.47
2022-11-09T03:35:43.631Z,100120.28
2022-11-09T03:38:10.127Z,100118.94
2022-11-09T03:40:36.468Z,100123.13
2022-11-09T03:43:02.869Z,100129.53
2022-11-09T03:45:29.210Z,100137.44
2022-11-09T03:48:00.358Z,100141.28
2022-11-09T03:50:33.023Z,100136.09
2022-11-09T03:53:01.845Z,100133.72
2022-11-09T03:55:28.716Z,100140.13
2022-11-09T03:57:55.352Z,100139.28
2022-11-09T04:00:22.984Z,100135.06
2022-11-09T04:02:49.826Z,100143.81
2022-11-09T04:05:16.249Z,100144.34
2022-11-09T04:07:50.742Z,100138.75
2022-11-09T04:10:17.342Z,100152.56
2022-11-09T04:12:44.443Z,100138.44
2022-11-09T04:15:11.798Z,100147.34
2022-11-09T04:17:38.716Z,100135.75
2022-11-09T04:20:07.446Z,100149.97
2022-11-09T04:22:34.335Z,100148.81
2022-11-09T04:25:00.923Z,100148.13
2022-11-09T04:27:27.288Z,100141.06
2022-11-09T04:29:53.694Z,100144.75
2022-11-09T04:32:20.031Z,100140.78
2022-11-09T04:34:46.371Z,100147.03
2022-11-09T04:37:12.671Z,100159.94
2022-11-09T04:39:39.004Z,100152.13
2022-11-09T04:42:05.455Z,100148.19
2022-11-09T04:44:31.897Z,100148.63
2022-11-09T04:46:58.203Z,100148.63
2022-11-09T04:49:24.717Z,100159.63
2022-11-09T04:51:51.107Z,100141.41
2022-11-09T04:54:17.411Z,100151.19
2022-11-09T04:56:43.740Z,100154.72
2022-11-09T04:59:10.063Z,100158.41
2022-11-09T05:01:36.339Z,100151.03
2022-11-09T05:04:02.734Z,100143.13
2022-11-09T05:06:32.141Z,100141.72
2022-11-09T05:09:07.012Z,100146.59
2022-11-09T05:11:35.210Z,100127.59
2022-11-09T05:14:02.070Z,100133.28
2022-11-09T05:16:29.294Z,100132.75
2022-11-09T05:18:55.796Z,100136.13
2022-11-09T05:21:22.175Z,100127.38
2022-11-09T05:24:00.694Z,100122.84
2022-11-09T05:26:35.847Z,100126.69
2022-11-09T05:29:04.872Z,100116.78
2022-11-09T05:31:31.337Z,100112.47
2022-11-09T05:33:59.254Z,100135.50
2022-11-09T05:36:27.713Z,100130.59
2022-11-09T05:38:54.698Z,100126.53
2022-11-09T05:41:21.271Z,100135.44
2022-11-09T05:43:48.141Z,100125.38
2022-11-09T05:46:15.500Z,100118.84
2022-11-09T05:48:43.114Z,100109.78
2022-11-09T05:51:12.619Z,100097.47
2022-11-09T05:53:42.401Z,100094.78
2022-11-09T05:56:13.434Z,100094.09
2022-11-09T05:58:41.172Z,100091.13
2022-11-09T06:01:18.948Z,100088.06
2022-11-09T06:03:45.364Z,100104.56
2022-11-09T06:06:14.122Z,100120.63
2022-11-09T06:08:40.793Z,100118.63
2022-11-09T06:11:09.823Z,100122.16
2022-11-09T06:13:36.763Z,100116.47
2022-11-09T06:16:05.235Z,100106.78
2022-11-09T06:18:33.062Z,100121.66
2022-11-09T06:21:01.929Z,100120.53
2022-11-09T06:23:29.325Z,100131.47
2022-11-09T06:25:57.929Z,100122.38
2022-11-09T06:28:24.249Z,100132.13
2022-11-09T06:30:50.549Z,100132.13
2022-11-09T06:33:17.046Z,100123.91
2022-11-09T06:35:43.562Z,100126.75
2022-11-09T06:38:11.430Z,100127.06
2022-11-09T06:40:37.885Z,100133.28
2022-11-09T06:43:04.203Z,100137.50
2022-11-09T06:45:31.073Z,100140.38
2022-11-09T06:47:59.354Z,100160.72
2022-11-09T06:50:26.772Z,100153.94
2022-11-09T06:53:01.398Z,100151.25
2022-11-09T06:55:29.398Z,100152.81
2022-11-09T06:57:56.239Z,100152.25
2022-11-09T07:00:24.307Z,100160.16
2022-11-09T07:02:51.252Z,100173.47
2022-11-09T07:05:17.979Z,100185.91
2022-11-09T07:07:44.456Z,100207.41
2022-11-09T07:10:11.704Z,100204.03
2022-11-09T07:12:38.018Z,100208.25
2022-11-09T07:15:05.895Z,100206.09
2022-11-09T07:17:33.328Z,100216.84
2022-11-09T07:20:00.245Z,100217.00
2022-11-09T07:22:29.548Z,100209.50
2022-11-09T07:24:55.915Z,100207.19
2022-11-09T07:27:27.500Z,100203.81
2022-11-09T07:29:54.538Z,100218.69
2022-11-09T07:32:24.596Z,100208.53
2022-11-09T07:35:02.174Z,100226.59
2022-11-09T07:37:28.649Z,100231.97
2022-11-09T07:39:54.971Z,100229.28
2022-11-09T07:42:21.355Z,100236.75
2022-11-09T07:44:47.651Z,100235.59
2022-11-09T07:47:18.183Z,100239.28
2022-11-09T07:49:45.171Z,100234.06
2022-11-09T07:52:12.002Z,100235.91
2022-11-09T07:54:39.401Z,100242.28
2022-11-09T07:57:06.554Z,100250.63
2022-11-09T07:59:33.288Z,100252.47
2022-11-09T08:01:59.699Z,100248.06
2022-11-09T08:04:26.138Z,100261.81
2022-11-09T08:06:53.258Z,100248.94
2022-11-09T08:09:19.916Z,100248.63
2022-11-09T08:11:46.368Z,100245.50
2022-11-09T08:14:12.738Z,100245.78
2022-11-09T08:16:39.364Z,100243.78
2022-11-09T08:19:05.724Z,100253.94
2022-11-09T08:21:32.115Z,100254.63
2022-11-09T08:23:58.443Z,100237.28
2022-11-09T08:26:24.752Z,100248.03
2022-11-09T08:28:51.065Z,100245.00
2022-11-09T08:31:17.374Z,100243.00
2022-11-09T08:33:43.669Z,100257.47
2022-11-09T08:36:15.732Z,100260.16
2022-11-09T08:38:43.467Z,100253.47
2022-11-09T08:41:13.572Z,100251.31
2022-11-09T08:43:40.375Z,100257.00
2022-11-09T08:46:06.751Z,100254.16
2022-11-09T08:48:33.112Z,100245.41
2022-11-09T08:51:00.047Z,100244.56
2022-11-09T08:53:27.984Z,100252.84
2022-11-09T08:55:54.416Z,100249.16
2022-11-09T08:58:22.458Z,100255.09
2022-11-09T09:00:49.063Z,100252.63
2022-11-09T09:03:15.399Z,100255.69
2022-11-09T09:05:41.758Z,100259.22
2022-11-09T09:08:08.231Z,100249.84
2022-11-09T09:10:38.012Z,100249.00
2022-11-09T09:13:04.833Z,100255.75
2022-11-09T09:15:31.809Z,100246.22
2022-11-09T09:18:02.375Z,100256.97
2022-11-09T09:20:29.233Z,100255.19
2022-11-09T09:22:59.515Z,100257.72
2022-11-09T09:25:26.845Z,100261.81
2022-11-09T09:27:53.154Z,100258.97
2022-11-09T09:30:19.660Z,100261.31
2022-11-09T09:32:45.978Z,100254.63
2022-11-09T09:35:12.806Z,100268.22
2022-11-09T09:37:39.187Z,100265.88
2022-11-09T09:40:06.340Z,100269.06
2022-11-09T09:42:41.844Z,100274.16
2022-11-09T09:45:18.189Z,100282.59
2022-11-09T09:48:03.803Z,100295.78
2022-11-09T09:50:37.999Z,100284.66
2022-11-09T09:53:24.729Z,100293.13
2022-11-09T09:56:26.767Z,100305.59
2022-11-09T09:59:02.916Z,100298.03
2022-11-09T10:01:37.590Z,100291.28
2022-11-09T10:04:15.310Z,100300.50
2022-11-09T10:07:03.732Z,100297.13
2022-11-09T10:09:45.526Z,100302.63
2022-11-09T10:12:36.989Z,100288.97
2022-11-09T10:15:11.955Z,100288.16
2022-11-09T10:17:41.411Z,100283.16
2022-11-09T10:20:26.107Z,100287.16
2022-11-09T10:23:13.019Z,100283.66
2022-11-09T10:26:03.017Z,100284.38
2022-11-09T10:28:47.671Z,100281.25
2022-11-09T10:31:21.968Z,100286.50
2022-11-09T10:33:57.389Z,100284.13
2022-11-09T10:36:26.702Z,100293.59
2022-11-09T10:38:58.895Z,100295.75
2022-11-09T10:41:41.042Z,100290.19
2022-11-09T10:44:18.293Z,100289.34
2022-11-09T10:47:07.989Z,100276.00
2022-11-09T10:49:36.278Z,100271.25
2022-11-09T10:52:03.431Z,100277.00
2022-11-09T10:54:37.564Z,100268.03
2022-11-09T10:57:20.390Z,100281.75
2022-11-09T10:59:54.611Z,100286.16
2022-11-09T11:02:26.707Z,100286.34
2022-11-09T11:05:23.850Z,100285.66
2022-11-09T11:07:50.424Z,100284.94
2022-11-09T11:10:16.850Z,100287.34
2022-11-09T11:12:46.530Z,100294.06
2022-11-09T11:15:38.550Z,100297.78
2022-11-09T11:18:15.067Z,100285.81
2022-11-09T11:20:41.445Z,100298.13
2022-11-09T11:23:19.935Z,100283.25
2022-11-09T11:25:59.563Z,100293.06
2022-11-09T11:28:39.873Z,100277.84
2022-11-09T11:31:18.235Z,100282.94
2022-11-09T11:33:45.183Z,100289.03
2022-11-09T11:36:19.428Z,100279.56
2022-11-09T11:38:57.349Z,100273.84
2022-11-09T11:41:45.431Z,100277.88
2022-11-09T11:45:02.949Z,100268.75
2022-11-09T11:47:58.218Z,100277.56
2022-11-09T11:50:46.558Z,100276.03
2022-11-09T11:53:25.325Z,100273.50
2022-11-09T11:56:13.219Z,100277.56
2022-11-09T11:59:03.320Z,100279.91
2022-11-09T12:01:35.846Z,100280.59
2022-11-09T12:04:30.987Z,100276.19
2022-11-09T12:07:35.356Z,100274.69
2022-11-09T12:10:20.988Z,100274.69
2022-11-09T12:13:31.467Z,100277.22
2022-11-09T12:16:07.580Z,100274.84
2022-11-09T12:19:10.590Z,100279.91
2022-11-09T12:21:54.130Z,100274.50
2022-11-09T12:24:31.585Z,100271.78
2022-11-09T12:27:32.305Z,100263.16
2022-11-09T12:30:22.209Z,100270.94
2022-11-09T12:33:12.378Z,100266.66
2022-11-09T12:35:50.770Z,100270.06
2022-11-09T12:38:21.710Z,100256.22
2022-11-09T12:40:58.404Z,100260.09
2022-11-09T12:43:44.968Z,100271.09
2022-11-09T12:46:14.661Z,100271.22
2022-11-09T12:48:41.010Z,100267.38
2022-11-09T12:51:08.485Z,100259.41
2022-11-09T12:53:36.951Z,100257.72
2022-11-09T12:56:17.250Z,100265.81
2022-11-09T12:58:44.213Z,100265.34
2022-11-09T13:01:13.023Z,100265.19
2022-11-09T13:03:58.584Z,100264.00
2022-11-09T13:06:28.904Z,100270.59
2022-11-09T13:08:59.483Z,100269.75
2022-11-09T13:11:35.745Z,100263.88
2022-11-09T13:14:25.948Z,100263.03
2022-11-09T13:16:55.723Z,100260.66
2022-11-09T13:19:34.180Z,100262.50
2022-11-09T13:22:02.238Z,100268.91
2022-11-09T13:24:31.271Z,100276.84
2022-11-09T13:27:02.646Z,100268.44
2022-11-09T13:29:41.134Z,100273.97
2022-11-09T13:32:10.691Z,100254.41
2022-11-09T13:34:43.099Z,100271.81
2022-11-09T13:37:34.258Z,100273.00
2022-11-09T13:40:00.623Z,100277.22
2022-11-09T13:42:33.553Z,100275.00
2022-11-09T13:45:24.727Z,100270.44
2022-11-09T13:47:52.085Z,100276.19
2022-11-09T13:50:22.003Z,100277.03
2022-11-09T13:52:53.507Z,100267.78
2022-11-09T13:55:37.972Z,100272.84
2022-11-09T13:58:18.594Z,100274.88
2022-11-09T14:00:47.259Z,100279.88
2022-11-09T14:03:26.338Z,100290.19
2022-11-09T14:05:57.315Z,100296.88
2022-11-09T14:08:27.767Z,100301.75
2022-11-09T14:11:19.490Z,100301.66
2022-11-09T14:14:12.620Z,100297.91
2022-11-09T14:17:04.163Z,100291.81
2022-11-09T14:20:04.855Z,100284.88
2022-11-09T14:22:35.824Z,100296.47
2022-11-09T14:25:20.840Z,100296.97
2022-11-09T14:27:57.137Z,100305.38
2022-11-09T14:30:25.226Z,100301.50
2022-11-09T14:32:56.330Z,100295.06
2022-11-09T14:35:25.039Z,100301.13
2022-11-09T14:37:54.490Z,100306.41
2022-11-09T14:40:28.975Z,100308.53
2022-11-09T14:42:55.321Z,100313.22
2022-11-09T14:45:22.712Z,100315.75
2022-11-09T14:47:52.120Z,100318.94
2022-11-09T14:50:23.467Z,100319.63
2022-11-09T14:52:52.723Z,100329.91
2022-11-09T14:55:21.237Z,100322.66
2022-11-09T14:57:49.725Z,100321.13
2022-11-09T15:00:35.030Z,100319.28
2022-11-09T15:03:22.463Z,100322.81
2022-11-09T15:05:48.845Z,100321.59
2022-11-09T15:08:22.499Z,100318.53
2022-11-09T15:10:52.586Z,100333.06
2022-11-09T15:13:27.787Z,100329.16
2022-11-09T15:15:54.846Z,100333.38
2022-11-09T15:18:33.905Z,100324.63
2022-11-09T15:21:25.541Z,100330.75
2022-11-09T15:24:03.701Z,100324.28
2022-11-09T15:26:44.782Z,100327.81
2022-11-09T15:29:34.819Z,100338.78
2022-11-09T15:32:17.808Z,100335.75
2022-11-09T15:34:56.205Z,100338.94
2022-11-09T15:37:27.948Z,100346.16
2022-11-09T15:39:54.238Z,100336.19
2022-11-09T15:42:21.224Z,100340.25
2022-11-09T15:44:55.429Z,100348.31
2022-11-09T15:47:33.765Z,100333.72
2022-11-09T15:50:03.563Z,100340.91
2022-11-09T15:52:30.215Z,100332.09
2022-11-09T15:54:56.842Z,100342.41
2022-11-09T15:57:23.201Z,100337.66
2022-11-09T15:59:51.275Z,100347.75
2022-11-09T16:02:19.098Z,100341.50
2022-11-09T16:04:45.419Z,100342.97
2022-11-09T16:07:14.927Z,100339.59
2022-11-09T16:09:41.990Z,100345.84
2022-11-09T16:12:08.814Z,100340.78
2022-11-09T16:14:35.550Z,100355.22
2022-11-09T16:17:02.140Z,100354.00
2022-11-09T16:19:28.544Z,100357.00
2022-11-09T16:21:54.898Z,100365.06
2022-11-09T16:24:21.387Z,100371.63
2022-11-09T16:26:47.829Z,100367.31
2022-11-09T16:29:14.152Z,100371.38
2022-11-09T16:31:51.540Z,100374.72
2022-11-09T16:34:18.923Z,100385.94
2022-11-09T16:36:50.917Z,100388.09
2022-11-09T16:39:20.506Z,100394.63
2022-11-09T16:41:50.015Z,100388.72
2022-11-09T16:44:19.969Z,100397.38
2022-11-09T16:46:47.879Z,100400.47
2022-11-09T16:49:17.823Z,100406.19
2022-11-09T16:51:44.277Z,100412.53
2022-11-09T16:54:10.641Z,100420.38
2022-11-09T16:56:36.963Z,100416.28
2022-11-09T16:59:03.474Z,100425.53
2022-11-09T17:01:29.819Z,100427.63
2022-11-09T17:03:57.451Z,100425.31
2022-11-09T17:06:24.141Z,100430.47
2022-11-09T17:08:51.052Z,100442.53
2022-11-09T17:11:17.626Z,100438.31
2022-11-09T17:13:44.094Z,100446.38
2022-11-09T17:16:12.620Z,100449.25
2022-11-09T17:18:39.490Z,100460.13
2022-11-09T17:21:10.838Z,100467.16
2022-11-09T17:23:37.636Z,100469.56
2022-11-09T17:26:05.574Z,100475.66
2022-11-09T17:28:32.308Z,100469.84
2022-11-09T17:30:59.032Z,100478.34
2022-11-09T17:33:25.347Z,100488.66
2022-11-09T17:35:59.747Z,100483.72
2022-11-09T17:38:26.419Z,100482.34
2022-11-09T17:40:54.316Z,100484.31
2022-11-09T17:43:20.744Z,100490.41
2022-11-09T17:45:47.022Z,100488.56
2022-11-09T17:48:13.347Z,100488.66
2022-11-09T17:50:39.699Z,100495.19
2022-11-09T17:53:05.992Z,100495.63
2022-11-09T17:55:32.288Z,100499.59
2022-11-09T17:57:58.592Z,100497.06
2022-11-09T18:00:25.062Z,100504.44
2022-11-09T18:02:55.379Z,100497.22
2022-11-09T18:05:21.678Z,100507.16
2022-11-09T18:07:47.987Z,100510.56
2022-11-09T18:10:14.339Z,100508.72
2022-11-09T18:12:40.619Z,100507.19
2022-11-09T18:15:07.212Z,100507.31
2022-11-09T18:17:33.630Z,100520.91
2022-11-09T18:19:59.921Z,100524.31
2022-11-09T18:22:26.206Z,100526.44
2022-11-09T18:24:52.569Z,100530.97
2022-11-09T18:27:18.897Z,100537.34
2022-11-09T18:29:45.193Z,100528.59
2022-11-09T18:32:11.519Z,100537.34
2022-11-09T18:34:37.834Z,100533.97
2022-11-09T18:37:04.161Z,100539.75
2022-11-09T18:39:30.810Z,100538.19
2022-11-09T18:42:00.165Z,100535.09
2022-11-09T18:44:26.458Z,100538.09
2022-11-09T18:46:52.744Z,100538.38
2022-11-09T18:49:19.944Z,100528.63
2022-11-09T18:51:46.260Z,100541.94
2022-11-09T18:54:12.592Z,100547.44
2022-11-09T18:56:39.023Z,100546.56
2022-11-09T18:59:05.567Z,100552.06
2022-11-09T19:01:31.909Z,100554.75
2022-11-09T19:04:01.520Z,100551.69
2022-11-09T19:06:28.248Z,100558.44
2022-11-09T19:09:13.564Z,100548.44
2022-11-09T19:11:39.979Z,100565.53
2022-11-09T19:14:06.309Z,100575.59
2022-11-09T19:16:32.762Z,100572.38
2022-11-09T19:18:59.070Z,100572.09
2022-11-09T19:21:25.828Z,100576.88
2022-11-09T19:23:52.798Z,100583.56
2022-11-09T19:26:19.967Z,100581.72
2022-11-09T19:28:46.341Z,100593.47
2022-11-09T19:31:14.710Z,100594.16
2022-11-09T19:33:41.016Z,100603.75
2022-11-09T19:36:29.095Z,100606.75
2022-11-09T19:38:55.662Z,100609.84
2022-11-09T19:41:22.160Z,100606.47
2022-11-09T19:43:49.671Z,100611.84
2022-11-09T19:46:16.651Z,100619.50
2022-11-09T19:48:47.557Z,100622.59
2022-11-09T19:51:16.483Z,100620.47
2022-11-09T19:53:48.581Z,100627.97
2022-11-09T19:56:14.862Z,100636.72
2022-11-09T19:58:41.227Z,100635.88
2022-11-09T20:01:11.560Z,100646.38
2022-11-09T20:03:38.175Z,100651.75
2022-11-09T20:06:06.659Z,100652.28
2022-11-09T20:08:34.695Z,100653.13
2022-11-09T20:11:06.575Z,100658.50
2022-11-09T20:13:33.526Z,100657.06
2022-11-09T20:16:05.326Z,100651.13
2022-11-09T20:18:35.282Z,100658.06
2022-11-09T20:21:02.145Z,100668.25
2022-11-09T20:23:28.502Z,100679.53
2022-11-09T20:26:09.534Z,100675.84
2022-11-09T20:28:35.875Z,100685.75
2022-11-09T20:31:09.260Z,100689.81
2022-11-09T20:33:35.562Z,100701.41
2022-11-09T20:36:01.830Z,100705.38
2022-11-09T20:38:28.210Z,100703.81
2022-11-09T20:40:56.010Z,100699.16
2022-11-09T20:43:23.487Z,100692.31
2022-11-09T20:45:50.633Z,100702.13
2022-11-09T20:48:38.707Z,100707.22
2022-11-09T20:51:05.350Z,100711.19
2022-11-09T20:53:31.963Z,100711.59
2022-11-09T20:55:58.338Z,100713.13
2022-11-09T20:58:26.831Z,100709.22
2022-11-09T21:01:20.435Z,100723.19
2022-11-09T21:03:48.725Z,100727.72
2022-11-09T21:06:15.192Z,100731.50
2022-11-09T21:08:52.540Z,100737.31
2022-11-09T21:11:19.711Z,100732.06
2022-11-09T21:13:53.676Z,100736.19
2022-11-09T21:16:21.566Z,100753.41
2022-11-09T21:18:48.669Z,100749.66
2022-11-09T21:21:20.323Z,100754.59
2022-11-09T21:24:05.484Z,100753.56
2022-11-09T21:26:50.740Z,100768.84
2022-11-09T21:29:41.029Z,100778.25
2022-11-09T21:32:08.228Z,100777.22
2022-11-09T21:34:37.036Z,100781.97
2022-11-09T21:37:04.852Z,100790.28
2022-11-09T21:39:31.333Z,100791.41
2022-11-09T21:41:57.636Z,100796.56
2022-11-09T21:44:24.345Z,100798.66
2022-11-09T21:46:50.660Z,100801.56
2022-11-09T21:49:16.930Z,100796.84
2022-11-09T21:51:43.338Z,100804.88
2022-11-09T21:54:10.379Z,100808.44
2022-11-09T21:56:36.875Z,100813.34
2022-11-09T21:59:04.157Z,100813.56
2022-11-09T22:01:30.533Z,100814.69
2022-11-09T22:03:57.016Z,100812.56
2022-11-09T22:06:23.589Z,100822.16
2022-11-09T22:08:51.397Z,100828.91
2022-11-09T22:11:20.031Z,100835.47
2022-11-09T22:14:04.842Z,100834.28
2022-11-09T22:16:33.812Z,100840.50
2022-11-09T22:19:22.037Z,100846.34
2022-11-09T22:21:48.342Z,100838.56
2022-11-09T22:24:14.662Z,100851.59
2022-11-09T22:26:40.970Z,100847.44
2022-11-09T22:29:07.356Z,100853.56
2022-11-09T22:31:33.686Z,100845.88
2022-11-09T22:34:00.049Z,100863.78
2022-11-09T22:36:26.360Z,100857.94
2022-11-09T22:38:52.678Z,100857.72
2022-11-09T22:41:19.488Z,100859.19
2022-11-09T22:43:45.849Z,100868.06
2022-11-09T22:46:14.842Z,100878.78
2022-11-09T22:48:43.120Z,100872.94
2022-11-09T22:51:11.910Z,100876.72
2022-11-09T22:53:38.399Z,100881.22
2022-11-09T22:56:05.585Z,100881.22
2022-11-09T22:58:32.030Z,100886.72
2022-11-09T23:01:16.984Z,100880.59
2022-11-09T23:03:43.358Z,100888.41
2022-11-09T23:06:13.127Z,100897.44
2022-11-09T23:08:39.472Z,100891.44
2022-11-09T23:11:14.563Z,100899.59
2022-11-09T23:13:41.444Z,100899.59
2022-11-09T23:16:10.360Z,100904.13
2022-11-09T23:18:55.987Z,100902.41
2022-11-09T23:21:33.526Z,100908.84
2022-11-09T23:24:04.933Z,100910.78
2022-11-09T23:26:32.772Z,100910.78
2022-11-09T23:28:59.931Z,100916.53
2022-11-09T23:31:26.894Z,100922.75
2022-11-09T23:33:57.385Z,100912.38
2022-11-09T23:36:25.738Z,100915.28
2022-11-09T23:38:52.164Z,100918.56
2022-11-09T23:41:19.028Z,100917.59
2022-11-09T23:43:49.333Z,100911.00
2022-11-09T23:46:16.991Z,100923.41
2022-11-09T23:48:43.337Z,100913.78
2022-11-09T23:51:10.238Z,100915.09
2022-11-09T23:53:36.699Z,100929.97
2022-11-09T23:56:08.765Z,100928.88
2022-11-09T23:58:35.146Z,100913.84
